Time;durP1;ratioP1;P1;durP2;ratioP2;P2;SDS_P1;SDS_P2;PMS_P1;PMS_P2;Temp;Humidity;BMP_temperature;BMP_pressure;BME280_temperature;BME280_humidity;BME280_pressure;Samples;Min_cycle;Max_cycle;Signal;HPM_P1;HPM_P2
2022/04/17 00:00:28;;;;;;;7.80;4.63;;;;;;;;;;5020793;28;20190;-64
2022/04/17 00:02:53;;;;;;;9.90;4.47;;;;;;;;;;5026586;28;20190;-65
2022/04/17 00:05:19;;;;;;;7.93;4.60;;;;;;;;;;5022648;28;20531;-64
2022/04/17 00:07:44;;;;;;;8.20;4.10;;;;;;;;;;5021192;28;20214;-64
2022/04/17 00:10:10;;;;;;;8.27;4.23;;;;;;;;;;5022369;28;20501;-64
2022/04/17 00:12:39;;;;;;;7.90;4.40;;;;;;;;;;5023708;28;20226;-65
2022/04/17 00:15:05;;;;;;;11.23;5.47;;;;;;;;;;5027355;28;20543;-65
2022/04/17 00:17:30;;;;;;;9.27;4.53;;;;;;;;;;5022267;28;20265;-64
2022/04/17 00:19:56;;;;;;;9.23;5.07;;;;;;;;;;5014178;28;20292;-64
2022/04/17 00:22:23;;;;;;;9.80;4.60;;;;;;;;;;5018077;28;20201;-64
2022/04/17 00:24:48;;;;;;;9.57;4.77;;;;;;;;;;5025475;28;20191;-64
2022/04/17 00:27:14;;;;;;;7.17;4.50;;;;;;;;;;5020734;28;20262;-64
2022/04/17 00:29:39;;;;;;;12.57;4.80;;;;;;;;;;5024800;28;20202;-65
2022/04/17 00:32:05;;;;;;;10.67;4.80;;;;;;;;;;5024361;28;20201;-64
2022/04/17 00:34:30;;;;;;;8.33;5.00;;;;;;;;;;5023197;28;20174;-64
2022/04/17 00:37:00;;;;;;;8.43;4.43;;;;;;;;;;5021356;28;20183;-66
2022/04/17 00:39:29;;;;;;;9.00;4.60;;;;;;;;;;5020862;28;20790;-65
2022/04/17 00:41:54;;;;;;;8.57;4.73;;;;;;;;;;5025015;28;20244;-65
2022/04/17 00:44:20;;;;;;;9.00;4.67;;;;;;;;;;5023091;28;20675;-64
2022/04/17 00:46:45;;;;;;;7.70;4.30;;;;;;;;;;5023617;28;20251;-64
2022/04/17 00:49:11;;;;;;;8.07;4.70;;;;;;;;;;5024541;28;20193;-64
2022/04/17 00:51:37;;;;;;;7.07;4.60;;;;;;;;;;5023573;28;20205;-64
2022/04/17 00:54:03;;;;;;;8.53;5.47;;;;;;;;;;5018013;28;20179;-64
2022/04/17 00:56:30;;;;;;;11.47;4.90;;;;;;;;;;5025274;28;20190;-64
2022/04/17 00:58:56;;;;;;;7.80;5.23;;;;;;;;;;5024579;28;20319;-64
2022/04/17 01:01:21;;;;;;;7.20;4.40;;;;;;;;;;5026266;28;20683;-64
2022/04/17 01:03:50;;;;;;;9.47;4.83;;;;;;;;;;5023331;28;20298;-64
2022/04/17 01:06:17;;;;;;;11.90;4.83;;;;;;;;;;5021752;28;20192;-64
2022/04/17 01:08:42;;;;;;;6.60;4.90;;;;;;;;;;5024865;28;20186;-64
2022/04/17 01:11:09;;;;;;;9.87;5.03;;;;;;;;;;5024004;28;20550;-64
2022/04/17 01:13:37;;;;;;;7.50;4.83;;;;;;;;;;5019419;28;20265;-64
2022/04/17 01:16:05;;;;;;;8.97;4.97;;;;;;;;;;5022572;28;20249;-64
2022/04/17 01:18:51;;;;;;;9.90;5.13;;;;;;;;;;5016770;28;20565;-65
2022/04/17 01:21:19;;;;;;;8.10;5.10;;;;;;;;;;5018491;28;20203;-65
2022/04/17 01:29:12;;;;;;;10.43;5.17;;;;;;;;;;5020875;28;20193;-65
2022/04/17 01:31:37;;;;;;;10.30;5.13;;;;;;;;;;5023454;28;20215;-65
2022/04/17 01:34:03;;;;;;;9.33;5.33;;;;;;;;;;5023017;28;20183;-65
2022/04/17 01:36:28;;;;;;;8.80;4.83;;;;;;;;;;5024183;28;20202;-65
2022/04/17 01:38:53;;;;;;;10.57;5.03;;;;;;;;;;5018512;28;20224;-65
2022/04/17 01:41:19;;;;;;;7.53;5.23;;;;;;;;;;5026789;28;20353;-65
2022/04/17 01:43:44;;;;;;;9.90;4.90;;;;;;;;;;5024420;28;20667;-65
2022/04/17 01:46:09;;;;;;;7.40;4.70;;;;;;;;;;5024652;28;20177;-64
2022/04/17 01:48:34;;;;;;;8.17;5.37;;;;;;;;;;5024518;28;20204;-64
2022/04/17 01:51:00;;;;;;;10.43;5.30;;;;;;;;;;5024953;28;20239;-64
2022/04/17 01:53:25;;;;;;;11.53;5.63;;;;;;;;;;5025047;28;20885;-65
2022/04/17 01:55:51;;;;;;;8.93;5.07;;;;;;;;;;5025929;28;20260;-64
2022/04/17 01:58:16;;;;;;;8.13;5.03;;;;;;;;;;5024257;28;20567;-64
2022/04/17 02:00:41;;;;;;;9.23;5.30;;;;;;;;;;5024230;28;20638;-64
2022/04/17 02:03:07;;;;;;;10.90;5.37;;;;;;;;;;5024901;28;20244;-64
2022/04/17 02:05:32;;;;;;;10.27;5.07;;;;;;;;;;5018725;28;20620;-64
2022/04/17 02:07:57;;;;;;;9.40;5.03;;;;;;;;;;5024084;28;20289;-65
2022/04/17 02:10:23;;;;;;;8.77;4.53;;;;;;;;;;5025483;28;20194;-64
2022/04/17 02:12:48;;;;;;;7.77;5.10;;;;;;;;;;5022559;28;20228;-64
2022/04/17 02:15:14;;;;;;;10.73;5.30;;;;;;;;;;5025688;28;20205;-64
2022/04/17 02:17:40;;;;;;;9.37;5.50;;;;;;;;;;5023013;28;20255;-64
2022/04/17 02:20:08;;;;;;;8.17;5.33;;;;;;;;;;5024368;28;20206;-64
2022/04/17 02:22:33;;;;;;;9.60;5.70;;;;;;;;;;5025028;28;20190;-65
2022/04/17 02:24:59;;;;;;;7.27;4.77;;;;;;;;;;5022124;28;20195;-71
2022/04/17 02:27:24;;;;;;;9.17;5.23;;;;;;;;;;5027368;28;20182;-63
2022/04/17 02:29:49;;;;;;;9.87;5.47;;;;;;;;;;5019125;28;20610;-65
2022/04/17 02:32:15;;;;;;;13.33;5.43;;;;;;;;;;5022851;28;20216;-64
2022/04/17 02:34:40;;;;;;;13.73;5.60;;;;;;;;;;5021726;28;20190;-65
2022/04/17 02:37:06;;;;;;;9.70;5.40;;;;;;;;;;5018101;28;20179;-64
2022/04/17 02:39:31;;;;;;;11.00;5.50;;;;;;;;;;5016355;28;20183;-64
2022/04/17 02:41:57;;;;;;;9.93;5.60;;;;;;;;;;5025383;28;20189;-65
2022/04/17 02:44:22;;;;;;;9.20;5.20;;;;;;;;;;5025831;28;20256;-65
2022/04/17 02:49:31;;;;;;;11.87;4.87;;;;;;;;;;5023050;28;20213;-64
2022/04/17 02:51:56;;;;;;;9.57;5.40;;;;;;;;;;5016100;28;20178;-64
2022/04/17 02:54:22;;;;;;;11.73;5.63;;;;;;;;;;5028209;28;20182;-64
2022/04/17 02:56:47;;;;;;;11.60;5.47;;;;;;;;;;5029183;28;20186;-64
2022/04/17 02:59:12;;;;;;;9.00;5.57;;;;;;;;;;5026774;28;20638;-64
2022/04/17 03:07:05;;;;;;;12.37;5.30;;;;;;;;;;5026688;28;20284;-65
2022/04/17 03:09:30;;;;;;;8.00;4.93;;;;;;;;;;5019298;28;20622;-65
2022/04/17 03:11:56;;;;;;;8.33;5.60;;;;;;;;;;5022745;28;20625;-65
2022/04/17 03:14:21;;;;;;;8.93;5.67;;;;;;;;;;5025892;28;20193;-64
2022/04/17 03:16:46;;;;;;;11.23;5.87;;;;;;;;;;5024660;28;20178;-65
2022/04/17 03:19:13;;;;;;;7.90;5.00;;;;;;;;;;5017352;28;20261;-65
2022/04/17 03:21:38;;;;;;;11.60;6.07;;;;;;;;;;5025174;28;20170;-64
2022/04/17 03:24:04;;;;;;;11.70;6.17;;;;;;;;;;5015318;28;20225;-65
2022/04/17 03:26:29;;;;;;;10.83;5.67;;;;;;;;;;5019744;28;20179;-65
2022/04/17 03:28:55;;;;;;;12.17;5.80;;;;;;;;;;5023763;28;20194;-64
2022/04/17 03:31:20;;;;;;;10.67;6.13;;;;;;;;;;5023598;28;20642;-64
2022/04/17 03:33:46;;;;;;;11.23;5.57;;;;;;;;;;5025439;28;20186;-64
2022/04/17 03:36:12;;;;;;;13.40;5.70;;;;;;;;;;5026048;28;20178;-65
2022/04/17 03:38:38;;;;;;;11.20;5.63;;;;;;;;;;5020427;28;20195;-65
2022/04/17 03:41:03;;;;;;;12.57;5.27;;;;;;;;;;5021144;28;20178;-64
2022/04/17 03:43:28;;;;;;;11.27;5.87;;;;;;;;;;5014489;28;20194;-65
2022/04/17 03:45:54;;;;;;;9.13;5.30;;;;;;;;;;5027181;28;20186;-64
2022/04/17 03:48:19;;;;;;;11.67;5.30;;;;;;;;;;5025501;28;20194;-65
2022/04/17 03:50:45;;;;;;;8.10;5.33;;;;;;;;;;5027944;28;20189;-64
2022/04/17 03:53:10;;;;;;;10.27;5.70;;;;;;;;;;5020744;28;20604;-64
2022/04/17 03:55:36;;;;;;;9.53;5.83;;;;;;;;;;5016937;28;20503;-65
2022/04/17 03:58:02;;;;;;;10.27;5.50;;;;;;;;;;5023277;28;20286;-64
2022/04/17 04:00:28;;;;;;;9.17;5.33;;;;;;;;;;5011829;28;20190;-64
2022/04/17 04:02:53;;;;;;;9.53;5.73;;;;;;;;;;5024026;28;20186;-65
2022/04/17 04:05:19;;;;;;;10.80;5.77;;;;;;;;;;5020163;28;20209;-65
2022/04/17 04:07:45;;;;;;;9.40;5.70;;;;;;;;;;5027155;28;20174;-64
2022/04/17 04:10:10;;;;;;;9.70;5.80;;;;;;;;;;5026108;28;20193;-64
2022/04/17 04:12:37;;;;;;;10.80;6.00;;;;;;;;;;5017773;28;20745;-65
2022/04/17 04:15:03;;;;;;;12.20;5.83;;;;;;;;;;5027596;28;20182;-64
2022/04/17 04:17:28;;;;;;;10.13;5.97;;;;;;;;;;5021256;28;20190;-65
2022/04/17 04:19:53;;;;;;;13.80;6.27;;;;;;;;;;5027715;28;20213;-64
2022/04/17 04:22:20;;;;;;;10.70;5.47;;;;;;;;;;5026497;28;20197;-64
2022/04/17 04:24:45;;;;;;;11.90;6.07;;;;;;;;;;5026417;28;20202;-65
2022/04/17 04:29:54;;;;;;;10.03;5.90;;;;;;;;;;5022373;28;20232;-65
2022/04/17 04:32:22;;;;;;;11.80;6.23;;;;;;;;;;5026336;28;20709;-65
2022/04/17 04:34:48;;;;;;;11.70;5.83;;;;;;;;;;5025994;28;20193;-65
2022/04/17 04:37:14;;;;;;;12.37;5.90;;;;;;;;;;5026352;28;20178;-65
2022/04/17 04:39:39;;;;;;;9.20;5.60;;;;;;;;;;5025348;28;20182;-64
2022/04/17 04:42:04;;;;;;;13.70;6.03;;;;;;;;;;5026039;28;20617;-65
2022/04/17 04:44:30;;;;;;;10.27;5.93;;;;;;;;;;5021849;28;20255;-65
2022/04/17 04:46:55;;;;;;;14.27;5.83;;;;;;;;;;5026203;28;20206;-65
2022/04/17 04:49:30;;;;;;;10.30;5.83;;;;;;;;;;5025815;28;20705;-65
2022/04/17 04:52:03;;;;;;;10.43;6.03;;;;;;;;;;5024769;28;20242;-65
2022/04/17 04:54:30;;;;;;;9.97;6.30;;;;;;;;;;5023968;28;20170;-65
2022/04/17 04:56:56;;;;;;;10.87;6.30;;;;;;;;;;5027286;28;20360;-65
2022/04/17 04:59:22;;;;;;;8.87;5.90;;;;;;;;;;5022877;28;20645;-65
2022/04/17 05:01:48;;;;;;;10.07;5.47;;;;;;;;;;5026898;28;20186;-65
2022/04/17 05:04:15;;;;;;;12.90;6.47;;;;;;;;;;5022737;28;20190;-65
2022/04/17 05:06:41;;;;;;;11.43;6.00;;;;;;;;;;5026317;28;20677;-65
2022/04/17 05:09:06;;;;;;;12.17;6.50;;;;;;;;;;5021781;28;20264;-65
2022/04/17 05:11:32;;;;;;;13.07;6.50;;;;;;;;;;5023999;28;20264;-65
2022/04/17 05:13:57;;;;;;;11.77;6.50;;;;;;;;;;5024477;28;20166;-65
2022/04/17 05:16:23;;;;;;;10.27;5.80;;;;;;;;;;5026535;28;20533;-65
2022/04/17 05:18:52;;;;;;;12.13;6.00;;;;;;;;;;5025632;28;20201;-65
2022/04/17 05:21:20;;;;;;;11.93;6.30;;;;;;;;;;5022193;28;20214;-65
2022/04/17 05:23:45;;;;;;;12.07;6.40;;;;;;;;;;5019095;28;20210;-65
2022/04/17 05:26:10;;;;;;;15.03;7.03;;;;;;;;;;5025496;28;20276;-65
2022/04/17 05:28:36;;;;;;;11.43;6.57;;;;;;;;;;5026452;28;20555;-65
2022/04/17 05:31:01;;;;;;;13.57;6.50;;;;;;;;;;5020881;28;20220;-65
2022/04/17 05:33:27;;;;;;;13.50;7.00;;;;;;;;;;5024041;28;20206;-65
2022/04/17 05:35:52;;;;;;;11.47;6.83;;;;;;;;;;5023614;28;20204;-65
2022/04/17 05:38:20;;;;;;;15.37;6.77;;;;;;;;;;5022070;28;20187;-64
2022/04/17 05:40:48;;;;;;;12.17;6.60;;;;;;;;;;5023483;28;20189;-65
2022/04/17 05:43:13;;;;;;;12.23;6.43;;;;;;;;;;5026898;28;20189;-65
2022/04/17 05:45:39;;;;;;;11.80;6.70;;;;;;;;;;5025343;28;20182;-65
2022/04/17 05:48:06;;;;;;;11.53;6.57;;;;;;;;;;5025362;28;20558;-64
2022/04/17 05:50:32;;;;;;;8.67;5.83;;;;;;;;;;5025239;28;20688;-65
2022/04/17 05:52:58;;;;;;;10.00;6.40;;;;;;;;;;5026019;28;20177;-65
2022/04/17 05:55:23;;;;;;;11.97;7.07;;;;;;;;;;5027004;28;20248;-65
2022/04/17 05:57:48;;;;;;;10.67;5.93;;;;;;;;;;5024739;28;20209;-65
2022/04/17 06:00:16;;;;;;;13.73;6.50;;;;;;;;;;5025857;28;20217;-65
2022/04/17 06:02:43;;;;;;;9.67;5.87;;;;;;;;;;5022221;28;20208;-65
2022/04/17 06:05:09;;;;;;;11.07;6.87;;;;;;;;;;5023357;28;20651;-65
2022/04/17 06:07:34;;;;;;;12.20;6.80;;;;;;;;;;5026533;28;20232;-65
2022/04/17 06:10:07;;;;;;;9.50;5.90;;;;;;;;;;5026126;28;20186;-65
2022/04/17 06:12:33;;;;;;;11.50;6.47;;;;;;;;;;5024932;28;20333;-65
2022/04/17 06:14:59;;;;;;;13.23;6.63;;;;;;;;;;5024889;28;20198;-65
2022/04/17 06:17:24;;;;;;;12.40;6.50;;;;;;;;;;5023992;28;20244;-65
2022/04/17 06:19:50;;;;;;;10.40;6.63;;;;;;;;;;5024275;28;20202;-65
2022/04/17 06:22:15;;;;;;;10.33;5.87;;;;;;;;;;5027611;28;20232;-65
2022/04/17 06:24:41;;;;;;;10.47;6.40;;;;;;;;;;5027891;28;20553;-65
2022/04/17 06:27:07;;;;;;;11.60;7.03;;;;;;;;;;5028372;28;20190;-65
2022/04/17 06:29:32;;;;;;;8.90;5.57;;;;;;;;;;5027769;28;20197;-65
2022/04/17 06:31:57;;;;;;;10.57;6.00;;;;;;;;;;5025717;28;20213;-66
2022/04/17 06:34:23;;;;;;;9.40;5.60;;;;;;;;;;5028437;28;20207;-65
2022/04/17 06:36:48;;;;;;;10.53;5.93;;;;;;;;;;5022419;28;20221;-65
2022/04/17 06:39:14;;;;;;;9.93;6.00;;;;;;;;;;5025993;28;20218;-65
2022/04/17 06:41:39;;;;;;;11.33;5.73;;;;;;;;;;5024953;28;20194;-65
2022/04/17 06:44:05;;;;;;;11.00;5.67;;;;;;;;;;5026950;28;20634;-65
2022/04/17 06:46:30;;;;;;;9.03;5.40;;;;;;;;;;5025423;28;20348;-65
2022/04/17 06:48:55;;;;;;;9.57;5.90;;;;;;;;;;5027589;28;20637;-65
2022/04/17 06:51:24;;;;;;;9.93;5.77;;;;;;;;;;5025439;28;20281;-65
2022/04/17 06:53:50;;;;;;;9.03;5.40;;;;;;;;;;5025394;28;20206;-65
2022/04/17 06:56:18;;;;;;;7.67;5.10;;;;;;;;;;5025295;28;20193;-65
2022/04/17 06:58:47;;;;;;;10.03;5.37;;;;;;;;;;5024567;28;20555;-65
2022/04/17 07:01:14;;;;;;;7.13;4.97;;;;;;;;;;5024208;28;20268;-65
2022/04/17 07:03:40;;;;;;;6.90;4.73;;;;;;;;;;5022983;28;20248;-65
2022/04/17 07:06:06;;;;;;;12.57;5.57;;;;;;;;;;5023830;28;20596;-65
2022/04/17 07:08:31;;;;;;;7.93;5.35;;;;;;;;;;5025868;28;20220;-65
2022/04/17 07:10:56;;;;;;;9.57;5.43;;;;;;;;;;5024897;28;20205;-64
2022/04/17 07:13:25;;;;;;;8.38;5.43;;;;;;;;;;5024485;28;20299;-64
2022/04/17 07:15:50;;;;;;;10.25;5.50;;;;;;;;;;5024625;28;20202;-65
2022/04/17 07:18:16;;;;;;;7.57;4.80;;;;;;;;;;5023786;28;20206;-64
2022/04/17 07:20:41;;;;;;;9.48;5.38;;;;;;;;;;5024432;28;20210;-65
2022/04/17 07:23:06;;;;;;;8.27;5.15;;;;;;;;;;5025523;28;20202;-65
2022/04/17 07:25:32;;;;;;;7.85;5.07;;;;;;;;;;5024955;28;20182;-65
2022/04/17 07:27:58;;;;;;;8.40;4.68;;;;;;;;;;5025024;28;20186;-65
2022/04/17 07:30:29;;;;;;;8.95;4.90;;;;;;;;;;5025040;28;20224;-66
2022/04/17 07:32:56;;;;;;;7.95;4.93;;;;;;;;;;5024736;28;20710;-65
2022/04/17 07:35:23;;;;;;;6.78;4.68;;;;;;;;;;5021663;28;20218;-65
2022/04/17 07:37:54;;;;;;;8.05;4.90;;;;;;;;;;5023881;28;20204;-65
2022/04/17 07:40:24;;;;;;;6.47;4.30;;;;;;;;;;5022563;28;20507;-65
2022/04/17 07:42:50;;;;;;;9.80;4.63;;;;;;;;;;5025515;28;20186;-65
2022/04/17 07:45:15;;;;;;;6.90;4.63;;;;;;;;;;5026480;28;20204;-65
2022/04/17 07:47:44;;;;;;;5.78;4.32;;;;;;;;;;5024814;28;20181;-65
2022/04/17 07:50:12;;;;;;;6.55;3.88;;;;;;;;;;5023520;28;20273;-66
2022/04/17 07:52:39;;;;;;;5.30;3.60;;;;;;;;;;5024579;28;20622;-65
2022/04/17 07:55:06;;;;;;;6.38;3.40;;;;;;;;;;5025456;28;20230;-65
2022/04/17 07:57:53;;;;;;;5.82;3.20;;;;;;;;;;5028118;28;20182;-65
2022/04/17 08:00:21;;;;;;;5.97;3.33;;;;;;;;;;5021668;28;20193;-65
2022/04/17 08:02:53;;;;;;;6.28;3.40;;;;;;;;;;5026293;28;20178;-65
2022/04/17 08:05:22;;;;;;;6.35;3.70;;;;;;;;;;5026316;28;20668;-66
2022/04/17 08:07:48;;;;;;;4.68;3.22;;;;;;;;;;5025536;28;20269;-65
2022/04/17 08:10:13;;;;;;;5.57;3.30;;;;;;;;;;5027482;28;20647;-65
2022/04/17 08:12:40;;;;;;;4.40;3.25;;;;;;;;;;5026829;28;20223;-65
2022/04/17 08:15:06;;;;;;;5.03;3.17;;;;;;;;;;5027798;28;20260;-65
2022/04/17 08:17:32;;;;;;;7.57;3.45;;;;;;;;;;5027138;28;20259;-66
2022/04/17 08:19:57;;;;;;;5.50;2.90;;;;;;;;;;5028601;28;20188;-66
2022/04/17 08:22:22;;;;;;;3.58;2.72;;;;;;;;;;5024535;28;20194;-66
2022/04/17 08:24:48;;;;;;;7.75;3.03;;;;;;;;;;5019228;28;20642;-65
2022/04/17 08:27:13;;;;;;;6.80;3.40;;;;;;;;;;5026901;28;20190;-64
2022/04/17 08:29:38;;;;;;;5.00;2.72;;;;;;;;;;5025249;28;20545;-65
2022/04/17 08:32:04;;;;;;;6.40;3.42;;;;;;;;;;5016940;28;20313;-65
2022/04/17 08:34:29;;;;;;;4.60;3.00;;;;;;;;;;5019024;28;20198;-66
2022/04/17 08:36:55;;;;;;;6.20;3.30;;;;;;;;;;5020967;28;20182;-65
2022/04/17 08:39:20;;;;;;;5.40;2.78;;;;;;;;;;5022260;28;20630;-66
2022/04/17 08:41:47;;;;;;;4.15;2.60;;;;;;;;;;5022946;28;20178;-65
2022/04/17 08:44:13;;;;;;;4.00;2.85;;;;;;;;;;5024274;28;20188;-66
2022/04/17 08:46:39;;;;;;;4.97;3.13;;;;;;;;;;5020104;28;20186;-65
2022/04/17 08:49:06;;;;;;;6.05;2.90;;;;;;;;;;5024775;28;20197;-66
2022/04/17 08:51:32;;;;;;;5.00;2.92;;;;;;;;;;5009505;28;20247;-67
2022/04/17 08:54:00;;;;;;;4.45;2.83;;;;;;;;;;5023997;28;20608;-65
2022/04/17 08:56:26;;;;;;;6.28;3.10;;;;;;;;;;5020761;28;20664;-65
2022/04/17 08:58:51;;;;;;;3.78;2.90;;;;;;;;;;5021600;28;20265;-66
2022/04/17 09:01:18;;;;;;;3.53;3.00;;;;;;;;;;5021323;28;20186;-65
2022/04/17 09:03:47;;;;;;;6.13;3.15;;;;;;;;;;5023179;28;20649;-65
2022/04/17 09:06:13;;;;;;;6.65;3.15;;;;;;;;;;5022212;28;20222;-65
2022/04/17 09:08:56;;;;;;;7.57;2.97;;;;;;;;;;5017877;28;20264;-65
2022/04/17 09:11:25;;;;;;;6.55;3.10;;;;;;;;;;5020636;28;20565;-66
2022/04/17 09:13:54;;;;;;;7.20;2.70;;;;;;;;;;5021425;28;20295;-66
2022/04/17 09:16:26;;;;;;;4.68;2.85;;;;;;;;;;5018918;28;20674;-66
2022/04/17 09:18:51;;;;;;;4.05;2.75;;;;;;;;;;5015210;28;20190;-66
2022/04/17 09:21:33;;;;;;;5.43;3.15;;;;;;;;;;5021219;28;20197;-65
2022/04/17 09:24:20;;;;;;;4.55;3.00;;;;;;;;;;5020681;28;20178;-65
2022/04/17 09:26:57;;;;;;;5.68;3.22;;;;;;;;;;5020072;28;20171;-66
2022/04/17 09:29:27;;;;;;;5.57;3.17;;;;;;;;;;5026000;28;20181;-66
2022/04/17 09:32:07;;;;;;;5.05;3.33;;;;;;;;;;5017514;28;20206;-67
2022/04/17 09:34:45;;;;;;;5.97;3.80;;;;;;;;;;5019228;28;20247;-66
2022/04/17 09:37:21;;;;;;;5.68;3.40;;;;;;;;;;5016082;28;20269;-65
2022/04/17 09:39:48;;;;;;;6.22;3.67;;;;;;;;;;5020093;28;20182;-66
2022/04/17 09:42:20;;;;;;;4.05;3.10;;;;;;;;;;5024756;28;20541;-65
2022/04/17 09:44:47;;;;;;;5.25;3.20;;;;;;;;;;5020895;28;20376;-65
2022/04/17 09:47:16;;;;;;;5.75;3.05;;;;;;;;;;5017850;28;20197;-66
2022/04/17 09:50:03;;;;;;;5.72;3.35;;;;;;;;;;5024417;28;20186;-65
2022/04/17 09:52:31;;;;;;;4.55;2.83;;;;;;;;;;5022140;28;20200;-66
2022/04/17 09:54:57;;;;;;;8.32;3.00;;;;;;;;;;5022383;28;20198;-65
2022/04/17 09:57:30;;;;;;;4.15;3.25;;;;;;;;;;5025043;28;20272;-65
2022/04/17 09:59:57;;;;;;;6.10;2.90;;;;;;;;;;5029416;28;20197;-65
2022/04/17 10:02:25;;;;;;;3.35;2.38;;;;;;;;;;5021923;28;20222;-66
2022/04/17 10:04:51;;;;;;;3.47;2.75;;;;;;;;;;5024718;28;20594;-66
2022/04/17 10:07:18;;;;;;;6.35;2.72;;;;;;;;;;5025990;28;20209;-66
2022/04/17 10:09:46;;;;;;;4.22;2.63;;;;;;;;;;5025468;28;20269;-66
2022/04/17 10:12:14;;;;;;;5.03;2.65;;;;;;;;;;5020401;28;20320;-64
2022/04/17 10:14:40;;;;;;;4.10;2.55;;;;;;;;;;5022101;28;20237;-64
2022/04/17 10:17:07;;;;;;;4.45;2.75;;;;;;;;;;5023301;28;20178;-64
2022/04/17 10:19:35;;;;;;;4.70;3.25;;;;;;;;;;5025795;28;20596;-64
2022/04/17 10:22:03;;;;;;;5.20;2.65;;;;;;;;;;5023906;28;20214;-65
2022/04/17 10:24:28;;;;;;;3.28;2.58;;;;;;;;;;5025014;28;20610;-64
2022/04/17 10:26:54;;;;;;;3.03;2.15;;;;;;;;;;5024698;28;20214;-66
2022/04/17 10:29:26;;;;;;;4.80;2.25;;;;;;;;;;5023765;28;20186;-66
2022/04/17 10:32:13;;;;;;;3.67;2.63;;;;;;;;;;5026663;28;20202;-65
2022/04/17 10:35:13;;;;;;;4.70;2.78;;;;;;;;;;5016847;28;20568;-65
2022/04/17 10:38:11;;;;;;;4.40;2.80;;;;;;;;;;5013342;28;20182;-67
2022/04/17 10:40:37;;;;;;;4.60;2.90;;;;;;;;;;5017029;28;20199;-67
2022/04/17 10:43:03;;;;;;;4.05;2.65;;;;;;;;;;5024647;28;20186;-65
2022/04/17 10:45:31;;;;;;;4.50;3.10;;;;;;;;;;5022801;28;20181;-66
2022/04/17 10:48:10;;;;;;;3.28;2.42;;;;;;;;;;5022236;28;20236;-65
2022/04/17 10:50:51;;;;;;;4.22;2.45;;;;;;;;;;5014640;28;20187;-66
2022/04/17 10:53:27;;;;;;;4.20;2.63;;;;;;;;;;5023931;28;20205;-65
2022/04/17 10:56:09;;;;;;;5.63;2.50;;;;;;;;;;5029355;28;20565;-65
2022/04/17 10:58:42;;;;;;;3.95;2.80;;;;;;;;;;5021100;28;20185;-65
2022/04/17 11:01:11;;;;;;;3.25;2.65;;;;;;;;;;5014780;28;20581;-67
2022/04/17 11:03:37;;;;;;;5.18;2.45;;;;;;;;;;5020358;28;20571;-66
2022/04/17 11:06:33;;;;;;;5.13;2.60;;;;;;;;;;5020988;28;20174;-65
2022/04/17 11:09:19;;;;;;;4.32;2.67;;;;;;;;;;5027612;28;20190;-65
2022/04/17 11:11:45;;;;;;;4.47;2.53;;;;;;;;;;5022267;28;20218;-65
2022/04/17 11:14:26;;;;;;;3.47;2.50;;;;;;;;;;5030286;28;20197;-66
2022/04/17 11:16:57;;;;;;;7.13;2.92;;;;;;;;;;5026163;28;20190;-67
2022/04/17 11:19:28;;;;;;;3.35;2.45;;;;;;;;;;5013690;28;20187;-65
2022/04/17 11:21:56;;;;;;;4.07;2.70;;;;;;;;;;5016623;28;20261;-66
2022/04/17 11:24:22;;;;;;;5.65;3.03;;;;;;;;;;5030393;28;20184;-65
2022/04/17 11:27:06;;;;;;;3.53;2.50;;;;;;;;;;5026312;28;20237;-66
2022/04/17 11:29:50;;;;;;;4.05;2.60;;;;;;;;;;5024272;28;20232;-65
2022/04/17 11:32:18;;;;;;;4.43;2.20;;;;;;;;;;5029082;28;20202;-65
2022/04/17 11:34:52;;;;;;;4.35;2.53;;;;;;;;;;5018925;28;20224;-66
2022/04/17 11:37:21;;;;;;;3.03;2.17;;;;;;;;;;5022797;28;20189;-65
2022/04/17 11:39:47;;;;;;;3.72;2.20;;;;;;;;;;5024477;28;20642;-65
2022/04/17 11:42:13;;;;;;;4.13;2.20;;;;;;;;;;5029354;28;20277;-65
2022/04/17 11:44:49;;;;;;;4.38;2.05;;;;;;;;;;5029359;28;20525;-65
2022/04/17 11:47:20;;;;;;;3.08;2.22;;;;;;;;;;5020668;28;20290;-65
2022/04/17 11:49:48;;;;;;;5.25;2.63;;;;;;;;;;5028925;28;20224;-65
2022/04/17 11:52:17;;;;;;;4.47;2.30;;;;;;;;;;5029367;28;20191;-65
2022/04/17 11:54:44;;;;;;;4.07;2.22;;;;;;;;;;5022999;28;20217;-65
2022/04/17 11:57:13;;;;;;;2.50;2.30;;;;;;;;;;5025893;28;20198;-66
2022/04/17 11:59:48;;;;;;;4.13;2.13;;;;;;;;;;5026559;28;20186;-66
2022/04/17 12:02:16;;;;;;;6.45;4.15;;;;;;;;;;5019888;28;21696;-66
2022/04/17 12:04:46;;;;;;;13.55;7.53;;;;;;;;;;5016317;28;20202;-65
2022/04/17 12:07:13;;;;;;;5.47;3.22;;;;;;;;;;5029942;28;20424;-66
2022/04/17 12:09:39;;;;;;;4.95;2.72;;;;;;;;;;5014813;28;20183;-66
2022/04/17 12:12:10;;;;;;;4.70;3.13;;;;;;;;;;5023546;28;20218;-66
2022/04/17 12:14:36;;;;;;;5.65;3.35;;;;;;;;;;5028557;28;20198;-66
2022/04/17 12:17:01;;;;;;;5.32;3.08;;;;;;;;;;5019514;28;20191;-66
2022/04/17 12:19:27;;;;;;;4.97;3.55;;;;;;;;;;5025525;28;20612;-66
2022/04/17 12:21:53;;;;;;;4.35;2.67;;;;;;;;;;5027564;28;20673;-66
2022/04/17 12:24:19;;;;;;;3.80;2.88;;;;;;;;;;5022237;28;20630;-66
2022/04/17 12:26:46;;;;;;;3.35;2.63;;;;;;;;;;5027924;28;20178;-66
2022/04/17 12:29:12;;;;;;;3.95;2.75;;;;;;;;;;5027384;28;20205;-66
2022/04/17 12:31:38;;;;;;;6.40;3.80;;;;;;;;;;5022276;28;20198;-66
2022/04/17 12:34:08;;;;;;;5.93;3.30;;;;;;;;;;5028018;28;20206;-66
2022/04/17 12:36:34;;;;;;;4.22;3.05;;;;;;;;;;5025646;28;20183;-66
2022/04/17 12:39:02;;;;;;;4.07;2.50;;;;;;;;;;5019886;28;20192;-66
2022/04/17 12:41:28;;;;;;;5.40;3.65;;;;;;;;;;5028027;28;20224;-66
2022/04/17 12:43:54;;;;;;;4.18;2.50;;;;;;;;;;5028230;28;20218;-66
2022/04/17 12:46:42;;;;;;;6.47;4.32;;;;;;;;;;5028488;28;20182;-66
2022/04/17 12:49:12;;;;;;;4.57;3.15;;;;;;;;;;5023063;28;20189;-65
2022/04/17 12:51:39;;;;;;;5.18;3.58;;;;;;;;;;5018742;28;20190;-69
2022/04/17 12:54:10;;;;;;;4.15;3.33;;;;;;;;;;5024205;28;20213;-65
2022/04/17 12:56:36;;;;;;;4.97;3.38;;;;;;;;;;5027021;28;20596;-67
2022/04/17 12:59:02;;;;;;;5.15;3.63;;;;;;;;;;5020958;28;20281;-66
2022/04/17 13:01:32;;;;;;;4.75;3.25;;;;;;;;;;5028521;28;20265;-66
2022/04/17 13:04:09;;;;;;;5.65;3.75;;;;;;;;;;5025177;28;20178;-66
2022/04/17 13:06:34;;;;;;;4.53;3.80;;;;;;;;;;5020488;28;20199;-66
2022/04/17 13:09:16;;;;;;;4.03;3.13;;;;;;;;;;5025974;28;20192;-65
2022/04/17 13:11:53;;;;;;;8.27;3.20;;;;;;;;;;5026353;28;20226;-65
2022/04/17 13:14:19;;;;;;;7.30;3.13;;;;;;;;;;5022188;28;20206;-65
2022/04/17 13:16:58;;;;;;;6.32;3.08;;;;;;;;;;5027909;28;20178;-65
2022/04/17 13:19:26;;;;;;;5.18;2.65;;;;;;;;;;5021740;28;20189;-66
2022/04/17 13:21:54;;;;;;;4.70;2.90;;;;;;;;;;5026833;28;20534;-66
2022/04/17 13:24:21;;;;;;;5.55;3.05;;;;;;;;;;5026097;28;20462;-66
2022/04/17 13:26:46;;;;;;;5.10;3.28;;;;;;;;;;5025779;28;20193;-66
2022/04/17 13:29:12;;;;;;;6.70;2.85;;;;;;;;;;5024734;28;20190;-66
2022/04/17 13:31:38;;;;;;;6.10;3.42;;;;;;;;;;5027584;28;20587;-66
2022/04/17 13:34:04;;;;;;;3.83;2.75;;;;;;;;;;5014953;28;20211;-66
2022/04/17 13:36:29;;;;;;;7.03;3.10;;;;;;;;;;5027594;28;20182;-66
2022/04/17 13:38:55;;;;;;;5.28;3.05;;;;;;;;;;5025397;28;20190;-66
2022/04/17 13:41:20;;;;;;;4.25;2.70;;;;;;;;;;5021956;28;20266;-66
2022/04/17 13:43:45;;;;;;;5.20;3.03;;;;;;;;;;5024494;28;20545;-66
2022/04/17 13:46:11;;;;;;;5.38;3.08;;;;;;;;;;5021548;28;20200;-66
2022/04/17 13:48:38;;;;;;;4.53;2.95;;;;;;;;;;5009230;28;20254;-66
2022/04/17 13:51:05;;;;;;;4.57;3.33;;;;;;;;;;5018426;28;20274;-66
2022/04/17 13:53:33;;;;;;;4.28;2.90;;;;;;;;;;5019425;28;20482;-66
2022/04/17 13:55:59;;;;;;;3.85;2.65;;;;;;;;;;5018774;28;20201;-66
2022/04/17 13:58:25;;;;;;;3.78;2.60;;;;;;;;;;5022207;28;20216;-66
2022/04/17 14:00:51;;;;;;;4.03;2.85;;;;;;;;;;5019267;28;20600;-67
2022/04/17 14:03:17;;;;;;;5.32;2.95;;;;;;;;;;5018677;28;20570;-67
2022/04/17 14:05:42;;;;;;;6.35;3.00;;;;;;;;;;5021010;28;20170;-66
2022/04/17 14:08:08;;;;;;;4.50;3.10;;;;;;;;;;5021744;28;20281;-66
2022/04/17 14:10:33;;;;;;;5.13;2.92;;;;;;;;;;5024016;28;20185;-66
2022/04/17 14:12:59;;;;;;;4.45;2.75;;;;;;;;;;5021725;28;20229;-66
2022/04/17 14:15:24;;;;;;;4.10;2.95;;;;;;;;;;5023468;28;20206;-65
2022/04/17 14:17:50;;;;;;;3.90;2.70;;;;;;;;;;5021693;28;20269;-66
2022/04/17 14:20:15;;;;;;;5.45;3.00;;;;;;;;;;5011058;28;20191;-66
2022/04/17 14:22:40;;;;;;;5.05;2.72;;;;;;;;;;5021773;28;20662;-66
2022/04/17 14:25:06;;;;;;;4.47;2.70;;;;;;;;;;5022162;28;20166;-67
2022/04/17 14:27:31;;;;;;;4.90;3.15;;;;;;;;;;5022805;28;20288;-65
2022/04/17 14:29:57;;;;;;;4.28;2.70;;;;;;;;;;5019231;28;20660;-66
2022/04/17 14:32:22;;;;;;;6.07;3.22;;;;;;;;;;5022410;28;20692;-65
2022/04/17 14:34:48;;;;;;;4.32;2.92;;;;;;;;;;5021633;28;20610;-66
2022/04/17 14:37:13;;;;;;;4.90;2.90;;;;;;;;;;5023666;28;20183;-66
2022/04/17 14:39:40;;;;;;;4.45;3.13;;;;;;;;;;5024794;28;20551;-65
2022/04/17 14:42:05;;;;;;;4.80;3.15;;;;;;;;;;5022556;28;20195;-66
2022/04/17 14:44:31;;;;;;;8.98;2.92;;;;;;;;;;5025724;28;20261;-66
2022/04/17 14:46:56;;;;;;;4.30;2.90;;;;;;;;;;5027084;28;20613;-67
2022/04/17 14:49:23;;;;;;;6.40;3.28;;;;;;;;;;5028632;28;20186;-66
2022/04/17 14:51:52;;;;;;;4.07;2.90;;;;;;;;;;5027503;28;20277;-66
2022/04/17 14:54:18;;;;;;;5.32;3.10;;;;;;;;;;5027382;28;20206;-66
2022/04/17 14:56:44;;;;;;;3.88;2.70;;;;;;;;;;5026346;28;20185;-65
2022/04/17 14:59:10;;;;;;;4.45;2.83;;;;;;;;;;5023637;28;20186;-65